Friday, March 27, 2015
22:12 UTC
  |  Log In   |  Register Free
Airport Search:

Jackson-Medgar Wiley Evers International Airport
(KJAN)

FAA data valid effective March 05, 2015 - April 30, 2015 (unless otherwise noted).

 
 
 
 
 
 
 
 
 
 
 
 
 
 

Current Aviation Weather for Jackson-Medgar Wiley Evers International Airport (KJAN)

The most recent METAR observation for KJAN was updated at: 1410
METAR Summary (Translated METAR)
KJAN
251354Z 14006KT 10SM FEW048 18/16 A3011 RMK AO2 SLP193 T01830161
KHKS
251353Z AUTO 14007KT 8SM SCT008 18/16 A3011 RMK AO2 SLP190 T01780156 $
(7.6 nm NW from KJAN)
KJVW
251355Z AUTO 17006KT 9SM CLR 19/16 A3010 RMK AO2
(16.9 nm SW from KJAN)
TAF Summary (Translated TAF)
KJAN
251120Z 2512/2612 16004KT P6SM BKN010 BKN025 FM251600 16009KT P6SM BKN035 FM260000 17007KT P6SM SCT025 FM260800 17004KT P6SM BKN008 BKN015
KHKS
(7.6 nm NW from KJAN)
251120Z 2512/2612 16004KT P6SM BKN010 BKN025 FM251600 16009KT P6SM BKN035 FM260000 17007KT P6SM SCT025 FM260800 17004KT P6SM BKN008 BKN015
  Airport Weather Conditions for KJAN

 Current Weather at JAN
60° F
Mostly Cloudy
North winds at 12.7 mph
JAN NOAA Radar

Pressure: 30.05 in
Humidity: 38%
Wind: North at 12.7 MPH (11 KT)
Dew Point: 34.0°F
Visibility: 10.00 mi


Airport Weather Forecast for KJAN

Translated METAR and TAF for KJAN
Translated METAR for KJAN (2212 UTC 27 March 2015)
found at http://aviationweather.gov/adds/metars/
 
METAR text: KJAN 272154Z 35010G17KT 10SM FEW055 BKN075 16/02 A3005 RMK AO2 SLP176 T01610017
Conditions at: KJAN (JACKSON , MS, US) observed 2154 UTC 27 March 2015
Temperature: 16.1°C (61°F)
Dewpoint: 1.7°C (35°F) [RH = 38%]
Pressure (altimeter): 30.05 inches Hg (1017.7 mb)
[Sea-level pressure: 1017.6 mb]
Winds: from the N (350 degrees) at 12 MPH (10 knots; 5.2 m/s)
gusting to 20 MPH (17 knots; 8.8 m/s)
Visibility: 10 or more miles (16+ km)
Ceiling: 7500 feet AGL
Clouds: few clouds at 5500 feet AGL
broken clouds at 7500 feet AGL
Weather: no significant weather observed at this time
Translated TAF for KJAN
Forecast for: KJAN (JACKSON , MS, US)
TAF Text: KJAN 271721Z 2718/2818 35009KT P6SM SKC
Forecast period: 1800 to 2200 UTC 27 March 2015
Forecast type: FROM: standard forecast or significant change
Winds: from the N (350 degrees) at 10 MPH (9 knots; 4.7 m/s)
Visibility: 6 or more miles (10+ km)
Clouds: clear skies
Weather: no significant weather forecast for this period
TAF Text: FM272200 32010G17KT P6SM BKN050 BKN090
Forecast period: 2200 UTC 27 March 2015 to 0000 UTC 28 March 2015
Forecast type: FROM: standard forecast or significant change
Winds: from the NW (320 degrees) at 12 MPH (10 knots; 5.2 m/s)
gusting to 20 MPH (17 knots; 8.8 m/s)
Visibility: 6 or more miles (10+ km)
Ceiling: 5000 feet AGL
Clouds: broken clouds at 5000 feet AGL
broken clouds at 9000 feet AGL
Weather: no significant weather forecast for this period
TAF Text: FM280000 34009KT P6SM SKC
Forecast period: 0000 to 0200 UTC 28 March 2015
Forecast type: FROM: standard forecast or significant change
Winds: from the NNW (340 degrees) at 10 MPH (9 knots; 4.7 m/s)
Visibility: 6 or more miles (10+ km)
Clouds: clear skies
Weather: no significant weather forecast for this period
TAF Text: FM280200 35004KT P6SM SKC
Forecast period: 0200 to 1500 UTC 28 March 2015
Forecast type: FROM: standard forecast or significant change
Winds: from the N (350 degrees) at 5 MPH (4 knots; 2.1 m/s)
Visibility: 6 or more miles (10+ km)
Clouds: clear skies
Weather: no significant weather forecast for this period
TAF Text: FM281500 12004KT P6SM SCT250
Forecast period: 1500 to 1800 UTC 28 March 2015
Forecast type: FROM: standard forecast or significant change
Winds: from the ESE (120 degrees) at 5 MPH (4 knots; 2.1 m/s)
Visibility: 6 or more miles (10+ km)
Clouds: scattered clouds at 25000 feet AGL
Weather: no significant weather forecast for this period

Find All Airport Services Find A Hotel Find A Rental Car Find A Golf Course Find A Restaurant $100 Hamburger



FBO's on the Field
FBO Company Facility Photos Services Transportation Aviation Fuel Prices: Prices include tax
Catering Weather Repair Courtesy Rental Type 100LL JetA JetA+ MOGAS 8087
 
Atlantic Aviation - JAN

This FBO has not yet been rated
FS:Independent
Last Updated: Mar-27
Login to update fuel prices
SS:
Contact Atlantic Aviation - JANMore FBO Information
 
Add another FBO Facility Photos Catering Weather Repair Courtesy Rental Type 100LL JetA JetA+ MOGAS 8087
Services Transportation Aviation Fuel Prices: Prices include tax


model-print
model-print
model-print
model-print